sensor_id;sensor_type;location;lat;lon;timestamp;pressure;altitude;pressure_sealevel;temperature;humidity
22649;BME280;11491;41.942;24.220;2023-06-22T00:00:59;90335.75;;;14.41;90.53
22649;BME280;11491;41.942;24.220;2023-06-22T00:03:26;90316.50;;;14.39;90.32
22649;BME280;11491;41.942;24.220;2023-06-22T00:05:54;90347.47;;;14.53;89.69
22649;BME280;11491;41.942;24.220;2023-06-22T00:08:26;90403.97;;;14.92;89.29
22649;BME280;11491;41.942;24.220;2023-06-22T00:10:54;90325.56;;;14.31;90.26
22649;BME280;11491;41.942;24.220;2023-06-22T00:13:22;90438.19;;;15.14;89.39
22649;BME280;11491;41.942;24.220;2023-06-22T00:15:49;90351.31;;;14.52;89.23
22649;BME280;11491;41.942;24.220;2023-06-22T00:18:16;90309.78;;;14.10;90.11
22649;BME280;11491;41.942;24.220;2023-06-22T00:20:43;90391.25;;;14.69;89.40
22649;BME280;11491;41.942;24.220;2023-06-22T00:23:12;90420.13;;;14.72;90.90
22649;BME280;11491;41.942;24.220;2023-06-22T00:25:46;90416.09;;;14.62;91.19
22649;BME280;11491;41.942;24.220;2023-06-22T00:30:50;90358.25;;;14.14;91.19
22649;BME280;11491;41.942;24.220;2023-06-22T00:38:27;90381.75;;;14.17;90.14
22649;BME280;11491;41.942;24.220;2023-06-22T00:40:55;90452.84;;;14.74;90.37
22649;BME280;11491;41.942;24.220;2023-06-22T00:43:27;90423.59;;;14.53;90.60
22649;BME280;11491;41.942;24.220;2023-06-22T00:45:55;90371.13;;;14.05;91.22
22649;BME280;11491;41.942;24.220;2023-06-22T00:48:24;90486.13;;;14.85;92.22
22649;BME280;11491;41.942;24.220;2023-06-22T00:50:55;90477.78;;;14.71;92.22
22649;BME280;11491;41.942;24.220;2023-06-22T00:53:22;90390.53;;;14.14;91.77
22649;BME280;11491;41.942;24.220;2023-06-22T00:55:49;90424.09;;;14.39;90.49
22649;BME280;11491;41.942;24.220;2023-06-22T00:58:19;90368.41;;;13.85;91.46
22649;BME280;11491;41.942;24.220;2023-06-22T01:00:47;90349.59;;;13.85;90.39
22649;BME280;11491;41.942;24.220;2023-06-22T01:03:15;90414.88;;;14.40;90.27
22649;BME280;11491;41.942;24.220;2023-06-22T01:05:44;90428.75;;;14.42;90.01
22649;BME280;11491;41.942;24.220;2023-06-22T01:08:20;90385.00;;;14.07;89.26
22649;BME280;11491;41.942;24.220;2023-06-22T01:10:52;90421.25;;;14.32;90.60
22649;BME280;11491;41.942;24.220;2023-06-22T01:13:27;90482.88;;;14.57;91.31
22649;BME280;11491;41.942;24.220;2023-06-22T01:16:00;90418.63;;;14.16;91.20
22649;BME280;11491;41.942;24.220;2023-06-22T01:18:29;90331.91;;;13.65;89.55
22649;BME280;11491;41.942;24.220;2023-06-22T01:20:57;90454.94;;;14.46;90.33
22649;BME280;11491;41.942;24.220;2023-06-22T01:23:29;90470.38;;;14.49;91.06
22649;BME280;11491;41.942;24.220;2023-06-22T01:26:05;90465.97;;;14.40;91.59
22649;BME280;11491;41.942;24.220;2023-06-22T01:28:41;90468.81;;;14.48;90.33
22649;BME280;11491;41.942;24.220;2023-06-22T01:31:10;90413.88;;;14.10;90.46
22649;BME280;11491;41.942;24.220;2023-06-22T01:33:41;90465.81;;;14.14;92.87
22649;BME280;11491;41.942;24.220;2023-06-22T01:36:09;90341.16;;;13.32;92.98
22649;BME280;11491;41.942;24.220;2023-06-22T01:38:37;90365.38;;;13.51;91.35
22649;BME280;11491;41.942;24.220;2023-06-22T01:41:04;90390.53;;;13.78;90.84
22649;BME280;11491;41.942;24.220;2023-06-22T01:43:32;90429.56;;;14.08;90.50
22649;BME280;11491;41.942;24.220;2023-06-22T01:46:03;90356.56;;;13.35;92.28
22649;BME280;11491;41.942;24.220;2023-06-22T01:48:31;90428.09;;;14.10;91.22
22649;BME280;11491;41.942;24.220;2023-06-22T01:51:00;90437.41;;;13.81;92.90
22649;BME280;11491;41.942;24.220;2023-06-22T01:53:27;90424.47;;;13.51;93.69
22649;BME280;11491;41.942;24.220;2023-06-22T01:55:54;90352.91;;;13.11;94.52
22649;BME280;11491;41.942;24.220;2023-06-22T01:58:23;90468.63;;;14.02;94.49
22649;BME280;11491;41.942;24.220;2023-06-22T02:00:55;90464.16;;;13.74;95.30
22649;BME280;11491;41.942;24.220;2023-06-22T02:03:27;90466.38;;;14.04;93.66
22649;BME280;11491;41.942;24.220;2023-06-22T02:06:01;90413.28;;;13.65;94.15
22649;BME280;11491;41.942;24.220;2023-06-22T02:08:32;90478.13;;;14.15;92.02
22649;BME280;11491;41.942;24.220;2023-06-22T02:11:02;90472.91;;;14.22;91.18
22649;BME280;11491;41.942;24.220;2023-06-22T02:13:30;90363.66;;;13.43;90.03
22649;BME280;11491;41.942;24.220;2023-06-22T02:15:58;90361.25;;;13.38;90.68
22649;BME280;11491;41.942;24.220;2023-06-22T02:18:26;90477.41;;;14.18;90.59
22649;BME280;11491;41.942;24.220;2023-06-22T02:20:53;90409.22;;;13.55;90.62
22649;BME280;11491;41.942;24.220;2023-06-22T02:23:20;90368.03;;;13.32;92.15
22649;BME280;11491;41.942;24.220;2023-06-22T02:25:47;90325.94;;;13.04;92.96
22649;BME280;11491;41.942;24.220;2023-06-22T02:28:14;90478.56;;;14.01;92.79
22649;BME280;11491;41.942;24.220;2023-06-22T02:30:40;90344.59;;;13.17;90.48
22649;BME280;11491;41.942;24.220;2023-06-22T02:33:07;90349.13;;;13.12;90.76
22649;BME280;11491;41.942;24.220;2023-06-22T02:35:36;90409.38;;;13.63;90.84
22649;BME280;11491;41.942;24.220;2023-06-22T02:38:03;90432.03;;;13.81;90.75
22649;BME280;11491;41.942;24.220;2023-06-22T02:40:31;90377.94;;;13.31;91.86
22649;BME280;11491;41.942;24.220;2023-06-22T02:42:58;90359.84;;;13.12;92.05
22649;BME280;11491;41.942;24.220;2023-06-22T02:45:30;90445.59;;;13.69;92.52
22649;BME280;11491;41.942;24.220;2023-06-22T02:48:01;90455.97;;;13.86;90.73
22649;BME280;11491;41.942;24.220;2023-06-22T02:56:08;90397.00;;;13.26;92.13
22649;BME280;11491;41.942;24.220;2023-06-22T02:58:35;90446.13;;;13.58;92.65
22649;BME280;11491;41.942;24.220;2023-06-22T03:01:04;90449.41;;;13.68;92.10
22649;BME280;11491;41.942;24.220;2023-06-22T03:06:07;90464.81;;;13.71;91.03
22649;BME280;11491;41.942;24.220;2023-06-22T03:08:39;90486.22;;;13.83;92.23
22649;BME280;11491;41.942;24.220;2023-06-22T03:11:08;90489.34;;;13.85;93.16
22649;BME280;11491;41.942;24.220;2023-06-22T03:16:25;90382.19;;;13.17;92.34
22649;BME280;11491;41.942;24.220;2023-06-22T03:18:52;90417.03;;;13.29;92.75
22649;BME280;11491;41.942;24.220;2023-06-22T03:21:23;90420.75;;;13.40;91.40
22649;BME280;11491;41.942;24.220;2023-06-22T03:26:32;90376.66;;;13.09;90.49
22649;BME280;11491;41.942;24.220;2023-06-22T03:29:01;90421.28;;;13.30;91.78
22649;BME280;11491;41.942;24.220;2023-06-22T03:31:31;90519.41;;;14.07;91.40
22649;BME280;11491;41.942;24.220;2023-06-22T03:33:58;90374.44;;;13.27;91.09
22649;BME280;11491;41.942;24.220;2023-06-22T03:39:21;90454.94;;;13.75;92.42
22649;BME280;11491;41.942;24.220;2023-06-22T03:42:05;90366.06;;;13.17;93.66
22649;BME280;11491;41.942;24.220;2023-06-22T03:47:12;90500.09;;;14.36;91.94
22649;BME280;11491;41.942;24.220;2023-06-22T03:49:39;90493.41;;;14.30;92.88
22649;BME280;11491;41.942;24.220;2023-06-22T04:06:20;90398.06;;;14.08;90.48
22649;BME280;11491;41.942;24.220;2023-06-22T04:08:48;90484.28;;;14.90;89.36
22649;BME280;11491;41.942;24.220;2023-06-22T04:11:16;90471.13;;;14.84;88.93
22649;BME280;11491;41.942;24.220;2023-06-22T04:21:45;90440.63;;;15.00;89.66
22649;BME280;11491;41.942;24.220;2023-06-22T04:24:13;90389.97;;;14.63;89.72
22649;BME280;11491;41.942;24.220;2023-06-22T04:26:40;90398.16;;;14.90;88.67
22649;BME280;11491;41.942;24.220;2023-06-22T04:29:11;90399.13;;;15.01;88.27
22649;BME280;11491;41.942;24.220;2023-06-22T04:31:38;90384.34;;;15.14;87.92
22649;BME280;11491;41.942;24.220;2023-06-22T04:34:16;90495.84;;;16.25;86.08
22649;BME280;11491;41.942;24.220;2023-06-22T04:36:44;90461.81;;;16.17;85.56
22649;BME280;11491;41.942;24.220;2023-06-22T04:39:12;90445.81;;;16.31;85.09
22649;BME280;11491;41.942;24.220;2023-06-22T04:41:41;90389.94;;;16.01;85.24
22649;BME280;11491;41.942;24.220;2023-06-22T04:46:44;90464.47;;;17.00;84.38
22649;BME280;11491;41.942;24.220;2023-06-22T05:02:41;90433.06;;;17.67;80.56
22649;BME280;11491;41.942;24.220;2023-06-22T05:05:25;90437.94;;;17.95;79.77
22649;BME280;11491;41.942;24.220;2023-06-22T05:08:34;90429.91;;;18.02;79.23
22649;BME280;11491;41.942;24.220;2023-06-22T05:14:12;90455.69;;;18.44;80.09
22649;BME280;11491;41.942;24.220;2023-06-22T05:16:55;90420.50;;;18.47;78.66
22649;BME280;11491;41.942;24.220;2023-06-22T05:19:26;90502.50;;;19.25;78.21
22649;BME280;11491;41.942;24.220;2023-06-22T05:21:56;90456.00;;;19.08;77.30
22649;BME280;11491;41.942;24.220;2023-06-22T05:24:23;90481.69;;;19.57;76.22
22649;BME280;11491;41.942;24.220;2023-06-22T05:26:50;90468.19;;;19.72;76.16
22649;BME280;11491;41.942;24.220;2023-06-22T05:29:17;90445.72;;;19.75;75.85
22649;BME280;11491;41.942;24.220;2023-06-22T05:31:44;90464.75;;;20.11;75.01
22649;BME280;11491;41.942;24.220;2023-06-22T05:34:10;90451.53;;;20.31;74.63
22649;BME280;11491;41.942;24.220;2023-06-22T05:36:39;90482.53;;;20.80;74.29
22649;BME280;11491;41.942;24.220;2023-06-22T05:39:11;90408.09;;;20.45;73.41
22649;BME280;11491;41.942;24.220;2023-06-22T05:41:38;90412.72;;;20.62;73.43
22649;BME280;11491;41.942;24.220;2023-06-22T05:44:05;90483.16;;;21.23;72.70
22649;BME280;11491;41.942;24.220;2023-06-22T05:46:32;90404.94;;;20.75;72.55
22649;BME280;11491;41.942;24.220;2023-06-22T05:48:59;90480.00;;;21.36;72.57
22649;BME280;11491;41.942;24.220;2023-06-22T05:51:26;90491.59;;;21.58;71.73
22649;BME280;11491;41.942;24.220;2023-06-22T05:53:54;90485.72;;;21.63;69.05
22649;BME280;11491;41.942;24.220;2023-06-22T05:56:21;90472.16;;;21.59;70.52
22649;BME280;11491;41.942;24.220;2023-06-22T05:58:47;90430.59;;;21.55;67.81
22649;BME280;11491;41.942;24.220;2023-06-22T06:01:14;90421.59;;;21.69;65.34
22649;BME280;11491;41.942;24.220;2023-06-22T06:03:42;90499.72;;;22.28;64.53
22649;BME280;11491;41.942;24.220;2023-06-22T06:06:09;90484.50;;;22.34;64.25
22649;BME280;11491;41.942;24.220;2023-06-22T06:08:36;90386.56;;;21.75;64.23
22649;BME280;11491;41.942;24.220;2023-06-22T06:11:05;90476.19;;;22.48;63.40
22649;BME280;11491;41.942;24.220;2023-06-22T06:13:31;90488.72;;;22.42;61.10
22649;BME280;11491;41.942;24.220;2023-06-22T06:15:58;90443.13;;;22.01;60.43
22649;BME280;11491;41.942;24.220;2023-06-22T06:18:26;90470.47;;;22.39;61.21
22649;BME280;11491;41.942;24.220;2023-06-22T06:20:52;90480.88;;;22.51;61.11
22649;BME280;11491;41.942;24.220;2023-06-22T06:23:19;90477.00;;;22.49;61.66
22649;BME280;11491;41.942;24.220;2023-06-22T06:25:46;90479.78;;;22.38;60.41
22649;BME280;11491;41.942;24.220;2023-06-22T06:28:14;90479.34;;;22.43;60.55
22649;BME280;11491;41.942;24.220;2023-06-22T06:30:41;90485.47;;;22.58;61.92
22649;BME280;11491;41.942;24.220;2023-06-22T06:33:07;90482.47;;;22.45;58.90
22649;BME280;11491;41.942;24.220;2023-06-22T06:35:34;90486.38;;;22.44;59.20
22649;BME280;11491;41.942;24.220;2023-06-22T06:38:03;90484.41;;;22.45;59.93
22649;BME280;11491;41.942;24.220;2023-06-22T06:40:29;90490.94;;;22.54;59.30
22649;BME280;11491;41.942;24.220;2023-06-22T06:42:56;90486.44;;;22.37;58.89
22649;BME280;11491;41.942;24.220;2023-06-22T06:45:26;90491.06;;;22.40;59.69
22649;BME280;11491;41.942;24.220;2023-06-22T06:47:54;90423.94;;;22.15;58.58
22649;BME280;11491;41.942;24.220;2023-06-22T06:50:20;90493.13;;;22.70;60.07
22649;BME280;11491;41.942;24.220;2023-06-22T06:52:47;90487.97;;;22.83;58.26
22649;BME280;11491;41.942;24.220;2023-06-22T06:55:15;90501.88;;;22.92;57.65
22649;BME280;11491;41.942;24.220;2023-06-22T06:57:42;90495.88;;;23.12;59.69
22649;BME280;11491;41.942;24.220;2023-06-22T07:00:11;90496.50;;;23.27;59.35
22649;BME280;11491;41.942;24.220;2023-06-22T07:02:43;90496.41;;;23.34;55.74
22649;BME280;11491;41.942;24.220;2023-06-22T07:05:11;90507.47;;;23.54;57.58
22649;BME280;11491;41.942;24.220;2023-06-22T07:07:38;90501.56;;;23.59;54.20
22649;BME280;11491;41.942;24.220;2023-06-22T07:10:07;90499.09;;;23.37;54.03
22649;BME280;11491;41.942;24.220;2023-06-22T07:12:34;90506.50;;;23.37;54.62
22649;BME280;11491;41.942;24.220;2023-06-22T07:15:02;90501.66;;;23.52;55.77
22649;BME280;11491;41.942;24.220;2023-06-22T07:17:29;90509.19;;;23.75;55.01
22649;BME280;11491;41.942;24.220;2023-06-22T07:19:58;90518.69;;;23.63;55.20
22649;BME280;11491;41.942;24.220;2023-06-22T07:22:24;90518.88;;;23.45;55.30
22649;BME280;11491;41.942;24.220;2023-06-22T07:24:51;90506.69;;;23.19;58.25
22649;BME280;11491;41.942;24.220;2023-06-22T07:27:18;90514.81;;;23.26;56.54
22649;BME280;11491;41.942;24.220;2023-06-22T07:29:45;90512.00;;;23.33;57.22
22649;BME280;11491;41.942;24.220;2023-06-22T07:32:12;90510.44;;;23.32;54.76
22649;BME280;11491;41.942;24.220;2023-06-22T07:34:38;90515.78;;;23.43;54.34
22649;BME280;11491;41.942;24.220;2023-06-22T07:37:06;90424.63;;;22.72;54.79
22649;BME280;11491;41.942;24.220;2023-06-22T07:39:33;90515.56;;;23.61;54.92
22649;BME280;11491;41.942;24.220;2023-06-22T07:42:00;90513.94;;;23.67;53.79
22649;BME280;11491;41.942;24.220;2023-06-22T07:44:27;90522.78;;;23.78;53.36
22649;BME280;11491;41.942;24.220;2023-06-22T07:46:53;90512.25;;;23.80;53.41
22649;BME280;11491;41.942;24.220;2023-06-22T07:49:20;90518.38;;;23.88;54.56
22649;BME280;11491;41.942;24.220;2023-06-22T07:51:47;90510.41;;;24.01;55.62
22649;BME280;11491;41.942;24.220;2023-06-22T07:54:15;90514.41;;;23.93;53.34
22649;BME280;11491;41.942;24.220;2023-06-22T07:56:42;90520.88;;;23.75;55.14
22649;BME280;11491;41.942;24.220;2023-06-22T07:59:09;90507.59;;;23.77;55.46
22649;BME280;11491;41.942;24.220;2023-06-22T08:01:36;90491.78;;;23.61;54.06
22649;BME280;11491;41.942;24.220;2023-06-22T08:04:03;90505.03;;;23.94;54.53
22649;BME280;11491;41.942;24.220;2023-06-22T08:06:31;90505.41;;;23.96;53.58
22649;BME280;11491;41.942;24.220;2023-06-22T08:08:57;90499.94;;;23.96;53.12
22649;BME280;11491;41.942;24.220;2023-06-22T08:11:26;90498.56;;;24.11;54.84
22649;BME280;11491;41.942;24.220;2023-06-22T08:13:52;90480.63;;;24.10;54.19
22649;BME280;11491;41.942;24.220;2023-06-22T08:16:21;90478.75;;;24.31;53.62
22649;BME280;11491;41.942;24.220;2023-06-22T08:18:47;90489.09;;;24.43;51.55
22649;BME280;11491;41.942;24.220;2023-06-22T08:21:14;90497.13;;;24.57;51.13
22649;BME280;11491;41.942;24.220;2023-06-22T08:23:41;90497.66;;;24.72;50.80
22649;BME280;11491;41.942;24.220;2023-06-22T08:26:08;90490.56;;;24.75;51.80
22649;BME280;11491;41.942;24.220;2023-06-22T08:28:36;90482.06;;;24.69;51.91
22649;BME280;11491;41.942;24.220;2023-06-22T08:31:03;90490.44;;;24.82;54.98
22649;BME280;11491;41.942;24.220;2023-06-22T08:33:29;90491.63;;;25.04;53.82
22649;BME280;11491;41.942;24.220;2023-06-22T08:35:58;90402.06;;;24.88;53.29
22649;BME280;11491;41.942;24.220;2023-06-22T08:38:25;90474.56;;;25.40;50.95
22649;BME280;11491;41.942;24.220;2023-06-22T08:40:51;90484.50;;;25.50;50.60
22649;BME280;11491;41.942;24.220;2023-06-22T08:43:18;90486.63;;;25.63;50.97
22649;BME280;11491;41.942;24.220;2023-06-22T08:45:46;90474.28;;;25.54;49.66
22649;BME280;11491;41.942;24.220;2023-06-22T08:48:13;90474.69;;;25.33;50.48
22649;BME280;11491;41.942;24.220;2023-06-22T08:50:40;90492.13;;;25.19;49.44
22649;BME280;11491;41.942;24.220;2023-06-22T08:53:07;90488.59;;;25.42;53.21
22649;BME280;11491;41.942;24.220;2023-06-22T08:55:34;90491.25;;;25.66;48.67
22649;BME280;11491;41.942;24.220;2023-06-22T08:58:00;90489.00;;;25.61;48.63
22649;BME280;11491;41.942;24.220;2023-06-22T09:00:28;90457.16;;;25.30;49.20
22649;BME280;11491;41.942;24.220;2023-06-22T09:02:59;90485.25;;;25.71;48.39
22649;BME280;11491;41.942;24.220;2023-06-22T09:05:26;90481.00;;;25.70;47.93
22649;BME280;11491;41.942;24.220;2023-06-22T09:07:52;90483.47;;;25.44;48.10
22649;BME280;11491;41.942;24.220;2023-06-22T09:10:20;90488.31;;;25.37;49.87
22649;BME280;11491;41.942;24.220;2023-06-22T09:12:47;90490.56;;;25.22;49.78
22649;BME280;11491;41.942;24.220;2023-06-22T09:15:13;90494.81;;;24.99;49.29
22649;BME280;11491;41.942;24.220;2023-06-22T09:17:40;90490.91;;;25.00;49.88
22649;BME280;11491;41.942;24.220;2023-06-22T09:20:10;90496.69;;;24.82;48.48
22649;BME280;11491;41.942;24.220;2023-06-22T09:22:37;90495.31;;;24.70;48.68
22649;BME280;11491;41.942;24.220;2023-06-22T09:25:04;90490.81;;;24.60;48.81
22649;BME280;11491;41.942;24.220;2023-06-22T09:27:31;90484.91;;;24.85;47.43
22649;BME280;11491;41.942;24.220;2023-06-22T09:29:58;90481.16;;;25.23;49.28
22649;BME280;11491;41.942;24.220;2023-06-22T09:32:25;90481.22;;;25.59;47.69
22649;BME280;11491;41.942;24.220;2023-06-22T09:34:52;90482.25;;;25.85;45.64
22649;BME280;11491;41.942;24.220;2023-06-22T09:37:20;90482.38;;;25.78;44.43
22649;BME280;11491;41.942;24.220;2023-06-22T09:39:47;90474.09;;;26.02;49.76
22649;BME280;11491;41.942;24.220;2023-06-22T09:42:14;90468.22;;;26.52;49.16
22649;BME280;11491;41.942;24.220;2023-06-22T09:44:40;90472.50;;;27.02;44.30
22649;BME280;11491;41.942;24.220;2023-06-22T09:47:13;90419.69;;;26.69;47.25
22649;BME280;11491;41.942;24.220;2023-06-22T09:49:39;90478.44;;;26.84;44.88
22649;BME280;11491;41.942;24.220;2023-06-22T09:52:07;90481.19;;;26.68;44.38
22649;BME280;11491;41.942;24.220;2023-06-22T09:54:35;90479.16;;;26.56;45.29
22649;BME280;11491;41.942;24.220;2023-06-22T09:57:02;90451.16;;;26.28;43.94
22649;BME280;11491;41.942;24.220;2023-06-22T09:59:29;90482.91;;;26.62;43.19
22649;BME280;11491;41.942;24.220;2023-06-22T10:01:55;90485.72;;;26.91;46.40
22649;BME280;11491;41.942;24.220;2023-06-22T10:04:25;90478.22;;;27.24;45.65
22649;BME280;11491;41.942;24.220;2023-06-22T10:06:52;90469.75;;;27.48;45.26
22649;BME280;11491;41.942;24.220;2023-06-22T10:09:18;90486.28;;;27.32;42.20
22649;BME280;11491;41.942;24.220;2023-06-22T10:11:48;90482.34;;;27.16;45.75
22649;BME280;11491;41.942;24.220;2023-06-22T10:14:14;90486.28;;;27.15;43.21
22649;BME280;11491;41.942;24.220;2023-06-22T10:16:41;90491.97;;;26.92;44.25
22649;BME280;11491;41.942;24.220;2023-06-22T10:19:08;90458.72;;;26.90;44.84
22649;BME280;11491;41.942;24.220;2023-06-22T10:21:35;90472.56;;;27.32;44.54
22649;BME280;11491;41.942;24.220;2023-06-22T10:24:02;90480.13;;;27.69;45.06
22649;BME280;11491;41.942;24.220;2023-06-22T10:26:31;90475.78;;;27.85;42.95
22649;BME280;11491;41.942;24.220;2023-06-22T10:28:59;90474.75;;;27.95;43.89
22649;BME280;11491;41.942;24.220;2023-06-22T10:31:26;90429.69;;;27.92;42.23
22649;BME280;11491;41.942;24.220;2023-06-22T10:33:54;90471.88;;;28.24;42.03
22649;BME280;11491;41.942;24.220;2023-06-22T10:36:20;90462.00;;;28.27;44.38
22649;BME280;11491;41.942;24.220;2023-06-22T10:38:47;90435.59;;;27.91;44.64
22649;BME280;11491;41.942;24.220;2023-06-22T10:41:14;90466.38;;;28.37;44.09
22649;BME280;11491;41.942;24.220;2023-06-22T10:43:41;90452.97;;;28.39;37.90
22649;BME280;11491;41.942;24.220;2023-06-22T10:46:09;90452.13;;;28.68;42.61
22649;BME280;11491;41.942;24.220;2023-06-22T10:48:36;90449.94;;;28.63;39.58
22649;BME280;11491;41.942;24.220;2023-06-22T10:51:03;90446.19;;;28.56;39.60
22649;BME280;11491;41.942;24.220;2023-06-22T10:53:29;90451.13;;;28.62;43.31
22649;BME280;11491;41.942;24.220;2023-06-22T10:55:56;90459.38;;;28.62;41.02
22649;BME280;11491;41.942;24.220;2023-06-22T10:58:23;90441.88;;;28.04;39.56
22649;BME280;11491;41.942;24.220;2023-06-22T11:00:53;90447.91;;;27.99;42.41
22649;BME280;11491;41.942;24.220;2023-06-22T11:03:21;90440.13;;;28.23;45.57
22649;BME280;11491;41.942;24.220;2023-06-22T11:05:48;90435.16;;;28.44;42.62
22649;BME280;11491;41.942;24.220;2023-06-22T11:08:14;90437.16;;;28.43;41.90
22649;BME280;11491;41.942;24.220;2023-06-22T11:10:41;90433.75;;;28.65;41.61
22649;BME280;11491;41.942;24.220;2023-06-22T11:13:09;90438.53;;;28.86;41.48
22649;BME280;11491;41.942;24.220;2023-06-22T11:15:36;90432.69;;;29.10;42.77
22649;BME280;11491;41.942;24.220;2023-06-22T11:18:02;90441.25;;;29.12;39.63
22649;BME280;11491;41.942;24.220;2023-06-22T11:20:32;90422.56;;;29.29;41.22
22649;BME280;11491;41.942;24.220;2023-06-22T11:23:00;90442.19;;;29.53;39.67
22649;BME280;11491;41.942;24.220;2023-06-22T11:25:26;90441.88;;;29.16;38.80
22649;BME280;11491;41.942;24.220;2023-06-22T11:27:54;90428.09;;;28.81;39.00
22649;BME280;11491;41.942;24.220;2023-06-22T11:30:20;90436.94;;;28.25;40.59
22649;BME280;11491;41.942;24.220;2023-06-22T11:32:48;90436.84;;;28.54;42.45
22649;BME280;11491;41.942;24.220;2023-06-22T11:35:15;90442.94;;;28.84;45.33
22649;BME280;11491;41.942;24.220;2023-06-22T11:37:43;90443.03;;;29.06;39.27
22649;BME280;11491;41.942;24.220;2023-06-22T11:40:11;90444.00;;;28.99;38.96
22649;BME280;11491;41.942;24.220;2023-06-22T11:42:37;90449.63;;;28.95;42.99
22649;BME280;11491;41.942;24.220;2023-06-22T11:45:05;90424.31;;;29.01;38.63
22649;BME280;11491;41.942;24.220;2023-06-22T11:47:32;90438.69;;;29.74;40.04
22649;BME280;11491;41.942;24.220;2023-06-22T11:49:59;90436.16;;;30.11;40.54
22649;BME280;11491;41.942;24.220;2023-06-22T11:52:25;90440.78;;;29.70;39.63
22649;BME280;11491;41.942;24.220;2023-06-22T11:54:54;90429.25;;;29.40;40.96
22649;BME280;11491;41.942;24.220;2023-06-22T11:57:21;90438.31;;;29.28;42.78
22649;BME280;11491;41.942;24.220;2023-06-22T11:59:47;90431.84;;;29.79;41.35
22649;BME280;11491;41.942;24.220;2023-06-22T12:02:14;90437.06;;;30.17;39.35
22649;BME280;11491;41.942;24.220;2023-06-22T12:04:41;90435.69;;;29.81;37.76
22649;BME280;11491;41.942;24.220;2023-06-22T12:07:07;90435.06;;;29.42;39.10
22649;BME280;11491;41.942;24.220;2023-06-22T12:09:34;90437.41;;;29.31;39.35
22649;BME280;11491;41.942;24.220;2023-06-22T12:12:03;90437.44;;;28.84;40.23
22649;BME280;11491;41.942;24.220;2023-06-22T12:14:30;90436.97;;;28.50;40.14
22649;BME280;11491;41.942;24.220;2023-06-22T12:16:57;90432.53;;;28.14;41.61
22649;BME280;11491;41.942;24.220;2023-06-22T12:19:24;90432.66;;;27.85;42.43
22649;BME280;11491;41.942;24.220;2023-06-22T12:21:50;90432.25;;;27.70;43.01
22649;BME280;11491;41.942;24.220;2023-06-22T12:24:17;90425.53;;;27.59;45.21
22649;BME280;11491;41.942;24.220;2023-06-22T12:26:44;90428.06;;;27.53;45.02
22649;BME280;11491;41.942;24.220;2023-06-22T12:29:12;90420.03;;;27.59;44.18
22649;BME280;11491;41.942;24.220;2023-06-22T12:31:39;90424.00;;;27.58;46.59
22649;BME280;11491;41.942;24.220;2023-06-22T12:34:07;90402.00;;;27.45;45.89
22649;BME280;11491;41.942;24.220;2023-06-22T12:36:33;90415.00;;;27.70;45.99
22649;BME280;11491;41.942;24.220;2023-06-22T12:39:00;90415.06;;;27.96;44.96
22649;BME280;11491;41.942;24.220;2023-06-22T12:41:27;90417.25;;;27.88;44.84
22649;BME280;11491;41.942;24.220;2023-06-22T12:43:54;90428.06;;;27.53;44.56
22649;BME280;11491;41.942;24.220;2023-06-22T12:46:22;90428.09;;;27.37;46.08
22649;BME280;11491;41.942;24.220;2023-06-22T12:48:48;90429.19;;;27.10;46.41
22649;BME280;11491;41.942;24.220;2023-06-22T12:51:20;90427.31;;;27.07;48.33
22649;BME280;11491;41.942;24.220;2023-06-22T12:53:47;90413.41;;;27.14;50.28
22649;BME280;11491;41.942;24.220;2023-06-22T12:56:13;90417.19;;;27.20;48.39
22649;BME280;11491;41.942;24.220;2023-06-22T12:58:40;90419.63;;;27.02;48.40
22649;BME280;11491;41.942;24.220;2023-06-22T13:01:07;90403.03;;;27.22;50.52
22649;BME280;11491;41.942;24.220;2023-06-22T13:03:38;90427.50;;;28.26;47.94
22649;BME280;11491;41.942;24.220;2023-06-22T13:06:05;90426.34;;;28.74;44.40
22649;BME280;11491;41.942;24.220;2023-06-22T13:08:41;90429.09;;;29.22;44.13
22649;BME280;11491;41.942;24.220;2023-06-22T13:11:07;90381.09;;;29.23;43.46
22649;BME280;11491;41.942;24.220;2023-06-22T13:13:34;90439.88;;;29.29;44.08
22649;BME280;11491;41.942;24.220;2023-06-22T13:16:01;90431.66;;;29.38;46.36
22649;BME280;11491;41.942;24.220;2023-06-22T13:18:28;90437.72;;;29.68;46.59
22649;BME280;11491;41.942;24.220;2023-06-22T13:20:56;90428.41;;;30.28;47.68
22649;BME280;11491;41.942;24.220;2023-06-22T13:23:23;90427.22;;;30.79;43.71
22649;BME280;11491;41.942;24.220;2023-06-22T13:25:50;90423.56;;;31.00;42.79
22649;BME280;11491;41.942;24.220;2023-06-22T13:28:17;90411.91;;;30.87;41.65
22649;BME280;11491;41.942;24.220;2023-06-22T13:30:44;90419.75;;;30.88;42.92
22649;BME280;11491;41.942;24.220;2023-06-22T13:33:12;90406.56;;;31.02;43.99
22649;BME280;11491;41.942;24.220;2023-06-22T13:35:39;90410.72;;;31.06;42.50
22649;BME280;11491;41.942;24.220;2023-06-22T13:38:09;90417.78;;;31.26;43.13
22649;BME280;11491;41.942;24.220;2023-06-22T13:40:36;90417.19;;;31.49;44.86
22649;BME280;11491;41.942;24.220;2023-06-22T13:43:03;90410.41;;;31.69;42.54
22649;BME280;11491;41.942;24.220;2023-06-22T13:45:30;90423.75;;;31.06;41.48
22649;BME280;11491;41.942;24.220;2023-06-22T13:47:57;90414.25;;;30.48;41.21
22649;BME280;11491;41.942;24.220;2023-06-22T13:50:24;90403.75;;;30.24;42.53
22649;BME280;11491;41.942;24.220;2023-06-22T13:52:50;90411.63;;;30.13;40.84
22649;BME280;11491;41.942;24.220;2023-06-22T13:55:18;90399.16;;;29.68;43.17
22649;BME280;11491;41.942;24.220;2023-06-22T13:57:46;90410.41;;;29.61;42.08
22649;BME280;11491;41.942;24.220;2023-06-22T14:00:30;90380.38;;;29.10;43.05
22649;BME280;11491;41.942;24.220;2023-06-22T14:02:57;90385.38;;;28.89;44.47